createdAt,value
2022-09-13T00:02:25.233Z,16.27
2022-09-13T00:04:52.514Z,16.29
2022-09-13T00:07:20.725Z,16.29
2022-09-13T00:09:48.854Z,16.30
2022-09-13T00:12:16.352Z,16.33
2022-09-13T00:14:44.424Z,16.37
2022-09-13T00:17:11.634Z,16.39
2022-09-13T00:19:38.843Z,16.42
2022-09-13T00:22:06.595Z,16.42
2022-09-13T00:24:34.434Z,16.44
2022-09-13T00:27:01.612Z,16.45
2022-09-13T00:29:28.885Z,16.45
2022-09-13T00:31:56.290Z,16.48
2022-09-13T00:34:23.571Z,16.44
2022-09-13T00:36:50.816Z,16.43
2022-09-13T00:39:18.094Z,16.46
2022-09-13T00:41:45.690Z,16.48
2022-09-13T00:44:50.702Z,16.50
2022-09-13T00:47:23.572Z,16.54
2022-09-13T00:49:55.715Z,16.51
2022-09-13T00:52:24.379Z,16.50
2022-09-13T00:54:58.124Z,16.52
2022-09-13T00:57:26.135Z,16.53
2022-09-13T01:00:11.080Z,16.53
2022-09-13T01:02:55.927Z,16.55
2022-09-13T01:05:37.744Z,16.57
2022-09-13T01:08:12.719Z,16.59
2022-09-13T01:10:41.699Z,16.63
2022-09-13T01:13:15.069Z,16.63
2022-09-13T01:15:43.261Z,16.64
2022-09-13T01:18:11.187Z,16.64
2022-09-13T01:21:06.666Z,16.63
2022-09-13T01:23:53.389Z,16.65
2022-09-13T01:26:31.970Z,16.65
2022-09-13T01:29:33.603Z,16.63
2022-09-13T01:32:24.706Z,16.61
2022-09-13T01:35:23.913Z,16.60
2022-09-13T01:38:28.988Z,16.59
2022-09-13T01:41:12.626Z,16.58
2022-09-13T01:43:45.831Z,16.57
2022-09-13T01:46:19.551Z,16.55
2022-09-13T01:48:54.826Z,16.56
2022-09-13T01:51:35.278Z,16.53
2022-09-13T01:54:15.529Z,16.53
2022-09-13T01:57:16.569Z,16.53
2022-09-13T01:59:53.784Z,16.52
2022-09-13T02:02:35.260Z,16.48
2022-09-13T02:05:13.154Z,16.45
2022-09-13T02:07:42.852Z,16.40
2022-09-13T02:10:15.213Z,16.39
2022-09-13T02:12:43.699Z,16.40
2022-09-13T02:15:20.490Z,16.39
2022-09-13T02:17:52.645Z,16.37
2022-09-13T02:20:40.933Z,16.36
2022-09-13T02:23:13.485Z,16.35
2022-09-13T02:25:41.468Z,16.34
2022-09-13T02:28:19.285Z,16.33
2022-09-13T02:30:51.882Z,16.31
2022-09-13T02:33:24.486Z,16.28
2022-09-13T02:35:53.800Z,16.26
2022-09-13T02:38:25.774Z,16.26
2022-09-13T02:41:01.241Z,16.25
2022-09-13T02:43:35.977Z,16.23
2022-09-13T02:46:14.669Z,16.21
2022-09-13T02:49:15.953Z,16.23
2022-09-13T02:51:46.287Z,16.24
2022-09-13T02:54:25.320Z,16.23
2022-09-13T02:56:55.304Z,16.25
2022-09-13T02:59:24.196Z,16.26
2022-09-13T03:02:04.127Z,16.29
2022-09-13T03:04:33.214Z,16.30
2022-09-13T03:07:03.339Z,16.31
2022-09-13T03:09:31.826Z,16.31
2022-09-13T03:12:12.746Z,16.33
2022-09-13T03:14:51.500Z,16.35
2022-09-13T03:17:30.838Z,16.35
2022-09-13T03:20:33.623Z,16.37
2022-09-13T03:23:09.802Z,16.35
2022-09-13T03:25:56.866Z,16.39
2022-09-13T03:28:34.236Z,16.42
2022-09-13T03:31:18.064Z,16.42
2022-09-13T03:33:55.615Z,16.44
2022-09-13T03:36:46.451Z,16.47
2022-09-13T03:39:25.818Z,16.52
2022-09-13T03:41:57.274Z,16.52
2022-09-13T03:44:25.662Z,16.55
2022-09-13T03:46:57.338Z,16.62
2022-09-13T03:49:26.574Z,16.65
2022-09-13T03:51:54.008Z,16.65
2022-09-13T03:54:27.307Z,16.67
2022-09-13T03:57:14.298Z,16.67
2022-09-13T03:59:46.504Z,16.67
2022-09-13T04:02:15.286Z,16.67
2022-09-13T04:04:44.809Z,16.67
2022-09-13T04:07:14.885Z,16.64
2022-09-13T04:09:42.258Z,16.66
2022-09-13T04:12:14.205Z,16.65
2022-09-13T04:14:43.281Z,16.63
2022-09-13T04:17:10.957Z,16.62
2022-09-13T04:19:38.560Z,16.61
2022-09-13T04:22:06.414Z,16.59
2022-09-13T04:24:33.838Z,16.56
2022-09-13T04:27:01.606Z,16.53
2022-09-13T04:29:29.009Z,16.47
2022-09-13T04:31:56.491Z,16.48
2022-09-13T04:34:24.171Z,16.46
2022-09-13T04:36:52.908Z,16.43
2022-09-13T04:39:21.063Z,16.40
2022-09-13T04:41:49.038Z,16.36
2022-09-13T04:44:20.611Z,16.33
2022-09-13T04:46:49.068Z,16.31
2022-09-13T04:49:17.971Z,16.32
2022-09-13T04:51:45.412Z,16.33
2022-09-13T04:54:15.554Z,16.35
2022-09-13T04:56:44.129Z,16.35
2022-09-13T04:59:11.993Z,16.39
2022-09-13T05:01:40.587Z,16.45
2022-09-13T05:04:08.475Z,16.48
2022-09-13T05:06:36.104Z,16.50
2022-09-13T05:09:04.073Z,16.56
2022-09-13T05:11:31.680Z,16.65
2022-09-13T05:14:01.352Z,16.70
2022-09-13T05:16:31.284Z,16.74
2022-09-13T05:19:00.789Z,16.75
2022-09-13T05:21:29.260Z,16.78
2022-09-13T05:23:57.263Z,16.76
2022-09-13T05:26:26.520Z,16.79
2022-09-13T05:28:53.754Z,16.80
2022-09-13T05:31:30.599Z,16.75
2022-09-13T05:34:00.478Z,16.77
2022-09-13T05:36:28.266Z,16.73
2022-09-13T05:39:18.850Z,16.70
2022-09-13T05:41:45.174Z,16.65
2022-09-13T05:44:13.739Z,16.76
2022-09-13T05:46:42.387Z,16.81
2022-09-13T05:49:11.590Z,16.94
2022-09-13T05:51:39.362Z,17.09
2022-09-13T05:54:06.805Z,17.23
2022-09-13T05:56:37.916Z,17.25
2022-09-13T05:59:06.401Z,17.11
2022-09-13T06:01:35.687Z,17.05
2022-09-13T06:04:03.051Z,17.07
2022-09-13T06:06:33.078Z,17.22
2022-09-13T06:09:02.965Z,17.09
2022-09-13T06:11:34.635Z,17.09
2022-09-13T06:14:02.525Z,16.86
2022-09-13T06:16:30.915Z,16.77
2022-09-13T06:19:01.188Z,17.06
2022-09-13T06:21:29.427Z,16.76
2022-09-13T06:23:59.414Z,16.70
2022-09-13T06:26:28.410Z,16.73
2022-09-13T06:28:58.131Z,16.71
2022-09-13T06:31:28.273Z,16.73
2022-09-13T06:34:02.545Z,16.72
2022-09-13T06:36:30.395Z,16.74
2022-09-13T06:39:00.723Z,16.78
2022-09-13T06:41:28.420Z,16.77
2022-09-13T06:43:58.733Z,16.82
2022-09-13T06:46:40.901Z,16.89
2022-09-13T06:49:11.405Z,16.99
2022-09-13T06:51:38.994Z,17.04
2022-09-13T06:54:06.391Z,17.08
2022-09-13T06:56:35.958Z,17.48
2022-09-13T06:59:06.373Z,17.34
2022-09-13T07:01:44.871Z,17.26
2022-09-13T07:04:25.418Z,17.16
2022-09-13T07:06:58.272Z,17.10
2022-09-13T07:09:26.607Z,16.99
2022-09-13T07:11:56.038Z,16.95
2022-09-13T07:14:27.868Z,16.94
2022-09-13T07:17:01.167Z,16.95
2022-09-13T07:19:31.741Z,16.99
2022-09-13T07:22:02.337Z,16.99
2022-09-13T07:24:31.695Z,17.11
2022-09-13T07:26:59.645Z,17.38
2022-09-13T07:29:26.846Z,17.43
2022-09-13T07:31:55.234Z,17.52
2022-09-13T07:34:24.527Z,17.28
2022-09-13T07:36:56.509Z,17.29
2022-09-13T07:39:24.429Z,17.36
2022-09-13T07:41:53.813Z,17.44
2022-09-13T07:44:21.248Z,17.48
2022-09-13T07:46:54.352Z,17.48
2022-09-13T07:49:22.062Z,17.46
2022-09-13T07:51:55.493Z,17.44
2022-09-13T07:54:28.349Z,17.41
2022-09-13T07:56:55.854Z,17.48
2022-09-13T07:59:30.071Z,17.57
2022-09-13T08:01:58.298Z,17.92
2022-09-13T08:04:30.613Z,18.17
2022-09-13T08:07:01.620Z,18.36
2022-09-13T08:09:33.027Z,18.38
2022-09-13T08:12:00.632Z,18.43
2022-09-13T08:14:27.883Z,18.37
2022-09-13T08:16:57.029Z,18.28
2022-09-13T08:19:24.438Z,18.16
2022-09-13T08:21:51.601Z,18.02
2022-09-13T08:24:21.436Z,17.92
2022-09-13T08:26:49.451Z,17.86
2022-09-13T08:29:20.030Z,17.89
2022-09-13T08:31:52.382Z,17.89
2022-09-13T08:34:21.373Z,17.87
2022-09-13T08:36:48.599Z,17.89
2022-09-13T08:39:16.354Z,18.03
2022-09-13T08:41:45.414Z,18.24
2022-09-13T08:44:38.719Z,18.59
2022-09-13T08:47:34.581Z,19.10
2022-09-13T08:50:14.050Z,19.43
2022-09-13T08:53:06.147Z,19.63
2022-09-13T08:55:51.861Z,19.93
2022-09-13T08:58:36.047Z,20.28
2022-09-13T09:01:08.139Z,20.49
2022-09-13T09:03:46.826Z,20.77
2022-09-13T09:06:16.213Z,21.17
2022-09-13T09:08:53.144Z,21.48
2022-09-13T09:11:28.832Z,21.58
2022-09-13T09:14:17.657Z,21.77
2022-09-13T09:16:52.713Z,21.83
2022-09-13T09:19:40.507Z,21.75
2022-09-13T09:22:17.574Z,21.53
2022-09-13T09:24:54.926Z,21.40
2022-09-13T09:27:23.206Z,21.32
2022-09-13T09:29:58.224Z,21.46
2022-09-13T09:32:43.801Z,21.53
2022-09-13T09:35:27.467Z,21.60
2022-09-13T09:38:31.384Z,21.61
2022-09-13T09:41:05.866Z,21.71
2022-09-13T09:43:45.996Z,21.82
2022-09-13T09:46:15.608Z,21.88
2022-09-13T09:48:49.700Z,21.91
2022-09-13T09:51:28.300Z,21.79
2022-09-13T09:54:01.979Z,21.68
2022-09-13T09:56:32.573Z,21.57
2022-09-13T09:59:00.096Z,21.53
2022-09-13T10:01:35.025Z,21.53
2022-09-13T10:04:12.307Z,21.58
2022-09-13T10:06:43.596Z,21.62
2022-09-13T10:09:20.357Z,21.72
2022-09-13T10:11:52.746Z,21.78
2022-09-13T10:14:38.311Z,21.94
2022-09-13T10:17:20.409Z,22.03
2022-09-13T10:19:59.363Z,22.19
2022-09-13T10:22:28.036Z,22.38
2022-09-13T10:25:07.872Z,22.33
2022-09-13T10:27:38.553Z,22.17
2022-09-13T10:30:26.375Z,22.08
2022-09-13T10:32:57.728Z,22.08
2022-09-13T10:35:27.767Z,22.02
2022-09-13T10:37:55.731Z,22.11
2022-09-13T10:40:28.979Z,22.23
2022-09-13T10:42:58.381Z,22.24
2022-09-13T10:45:28.371Z,22.27
2022-09-13T10:48:02.835Z,22.30
2022-09-13T10:50:35.900Z,22.30
2022-09-13T10:53:08.281Z,22.31
2022-09-13T10:55:37.649Z,22.31
2022-09-13T10:58:05.005Z,22.28
2022-09-13T11:00:42.271Z,22.16
2022-09-13T11:03:40.177Z,21.99
2022-09-13T11:06:21.051Z,21.85
2022-09-13T11:09:26.876Z,21.79
2022-09-13T11:12:02.987Z,21.87
2022-09-13T11:14:47.946Z,21.99
2022-09-13T11:17:33.337Z,22.07
2022-09-13T11:20:20.864Z,22.05
2022-09-13T11:23:22.623Z,21.87
2022-09-13T11:26:05.336Z,21.49
2022-09-13T11:28:54.885Z,21.35
2022-09-13T11:31:44.420Z,21.29
2022-09-13T11:34:37.654Z,21.18
2022-09-13T11:37:26.760Z,21.23
2022-09-13T11:40:28.654Z,21.31
2022-09-13T11:43:16.397Z,21.39
2022-09-13T11:45:49.868Z,21.51
2022-09-13T11:48:40.255Z,21.65
2022-09-13T11:51:29.041Z,21.79
2022-09-13T11:54:24.047Z,21.81
2022-09-13T11:56:56.220Z,21.86
2022-09-13T11:59:40.741Z,21.86
2022-09-13T12:02:31.349Z,21.90
2022-09-13T12:05:25.892Z,21.83
2022-09-13T12:08:25.595Z,21.83
2022-09-13T12:11:16.138Z,21.76
2022-09-13T12:13:49.495Z,21.77
2022-09-13T12:16:36.374Z,21.62
2022-09-13T12:19:21.359Z,21.41
2022-09-13T12:21:49.798Z,21.30
2022-09-13T12:24:31.358Z,21.30
2022-09-13T12:27:20.964Z,21.45
2022-09-13T12:30:20.958Z,21.68
2022-09-13T12:32:49.193Z,21.89
2022-09-13T12:35:30.581Z,21.96
2022-09-13T12:38:12.586Z,21.94
2022-09-13T12:40:55.061Z,21.80
2022-09-13T12:43:22.270Z,21.72
2022-09-13T12:46:01.414Z,22.01
2022-09-13T12:48:50.740Z,22.27
2022-09-13T12:51:41.000Z,22.26
2022-09-13T12:54:32.783Z,22.23
2022-09-13T12:57:23.192Z,22.19
2022-09-13T13:00:15.099Z,22.21
2022-09-13T13:02:54.751Z,22.15
2022-09-13T13:05:31.298Z,22.10
2022-09-13T13:08:06.508Z,22.04
2022-09-13T13:10:37.306Z,21.77
2022-09-13T13:13:34.806Z,21.53
2022-09-13T13:16:21.523Z,21.41
2022-09-13T13:18:52.265Z,21.09
2022-09-13T13:21:49.011Z,21.21
2022-09-13T13:24:16.194Z,21.16
2022-09-13T13:26:45.769Z,21.04
2022-09-13T13:29:19.738Z,20.90
2022-09-13T13:32:07.816Z,20.81
2022-09-13T13:34:41.648Z,20.66
2022-09-13T13:37:08.849Z,20.53
2022-09-13T13:39:40.540Z,20.26
2022-09-13T13:42:25.437Z,20.13
2022-09-13T13:44:52.896Z,20.42
2022-09-13T13:47:20.467Z,20.45
2022-09-13T13:49:53.039Z,20.47
2022-09-13T13:52:23.403Z,20.47
2022-09-13T13:55:21.505Z,20.42
2022-09-13T13:58:03.928Z,20.40
2022-09-13T14:00:34.690Z,20.35
2022-09-13T14:03:02.107Z,20.33
2022-09-13T14:06:06.316Z,20.32
2022-09-13T14:08:55.021Z,20.28
2022-09-13T14:11:44.387Z,19.99
2022-09-13T14:14:30.258Z,19.97
2022-09-13T14:17:20.907Z,20.07
2022-09-13T14:19:50.471Z,20.04
2022-09-13T14:22:25.354Z,20.04
2022-09-13T14:24:53.953Z,19.99
2022-09-13T14:27:22.901Z,19.92
2022-09-13T14:30:20.826Z,19.88
2022-09-13T14:32:54.536Z,19.78
2022-09-13T14:35:34.328Z,19.74
2022-09-13T14:38:20.862Z,19.65
2022-09-13T14:40:53.156Z,19.47
2022-09-13T14:43:23.281Z,19.31
2022-09-13T14:46:05.141Z,19.45
2022-09-13T14:49:01.590Z,19.30
2022-09-13T14:51:40.354Z,19.14
2022-09-13T14:54:16.022Z,18.88
2022-09-13T14:56:50.338Z,19.00
2022-09-13T14:59:28.641Z,18.82
2022-09-13T15:02:02.653Z,18.62
2022-09-13T15:04:31.182Z,18.51
2022-09-13T15:07:09.826Z,18.61
2022-09-13T15:09:38.413Z,18.77
2022-09-13T15:12:27.404Z,18.75
2022-09-13T15:15:24.489Z,18.68
2022-09-13T15:17:52.693Z,18.60
2022-09-13T15:20:23.788Z,18.17
2022-09-13T15:22:53.599Z,18.04
2022-09-13T15:25:24.493Z,17.98
2022-09-13T15:27:52.338Z,18.27
2022-09-13T15:30:41.342Z,18.24
2022-09-13T15:33:11.845Z,18.22
2022-09-13T15:35:41.763Z,18.18
2022-09-13T15:38:28.843Z,18.12
2022-09-13T15:41:01.983Z,18.08
2022-09-13T15:43:31.054Z,18.03
2022-09-13T15:45:59.342Z,17.98
2022-09-13T15:48:35.083Z,17.93
2022-09-13T15:51:07.598Z,17.89
2022-09-13T15:53:38.084Z,17.83
2022-09-13T15:56:07.315Z,17.78
2022-09-13T15:58:36.581Z,17.38
2022-09-13T16:01:04.203Z,17.29
2022-09-13T16:03:32.104Z,17.45
2022-09-13T16:05:59.337Z,17.52
2022-09-13T16:08:27.771Z,17.31
2022-09-13T16:10:55.154Z,17.23
2022-09-13T16:13:23.402Z,17.20
2022-09-13T16:15:53.629Z,17.16
2022-09-13T16:18:24.815Z,17.12
2022-09-13T16:20:52.195Z,17.05
2022-09-13T16:23:19.480Z,17.01
2022-09-13T16:25:47.888Z,16.98
2022-09-13T16:28:18.037Z,16.92
2022-09-13T16:30:45.540Z,16.91
2022-09-13T16:33:13.226Z,16.88
2022-09-13T16:35:41.436Z,16.85
2022-09-13T16:38:10.665Z,16.82
2022-09-13T16:40:43.691Z,17.11
2022-09-13T16:43:11.304Z,17.14
2022-09-13T16:45:40.892Z,17.08
2022-09-13T16:48:08.797Z,17.20
2022-09-13T16:50:40.223Z,17.19
2022-09-13T16:53:07.821Z,17.17
2022-09-13T16:55:35.735Z,17.16
2022-09-13T16:58:04.624Z,16.95
2022-09-13T17:00:32.206Z,16.98
2022-09-13T17:02:59.555Z,17.01
2022-09-13T17:05:27.065Z,16.98
2022-09-13T17:07:54.382Z,16.89
2022-09-13T17:10:25.921Z,16.81
2022-09-13T17:12:53.791Z,16.68
2022-09-13T17:15:21.350Z,16.59
2022-09-13T17:17:48.901Z,16.44
2022-09-13T17:20:17.618Z,16.33
2022-09-13T17:22:44.871Z,16.34
2022-09-13T17:25:12.353Z,16.30
2022-09-13T17:27:39.779Z,16.25
2022-09-13T17:30:08.244Z,16.19
2022-09-13T17:32:41.810Z,16.13
2022-09-13T17:35:11.238Z,16.06
2022-09-13T17:37:38.762Z,16.00
2022-09-13T17:40:06.600Z,15.96
2022-09-13T17:42:34.646Z,15.89
2022-09-13T17:45:02.121Z,15.82
2022-09-13T17:47:29.604Z,15.74
2022-09-13T17:49:56.906Z,15.68
2022-09-13T17:52:24.845Z,15.63
2022-09-13T17:54:52.218Z,15.56
2022-09-13T17:57:19.883Z,15.54
2022-09-13T17:59:48.169Z,15.46
2022-09-13T18:02:15.878Z,15.44
2022-09-13T18:04:43.443Z,15.43
2022-09-13T18:07:10.954Z,15.41
2022-09-13T18:09:40.714Z,15.41
2022-09-13T18:12:08.007Z,15.41
2022-09-13T18:14:35.891Z,15.40
2022-09-13T18:17:10.725Z,15.43
2022-09-13T18:19:46.329Z,15.43
2022-09-13T18:22:16.032Z,15.45
2022-09-13T18:24:46.828Z,15.46
2022-09-13T18:27:14.277Z,15.48
2022-09-13T18:29:42.698Z,15.48
2022-09-13T18:32:10.211Z,15.49
2022-09-13T18:34:37.779Z,15.47
2022-09-13T18:37:05.767Z,15.46
2022-09-13T18:39:35.751Z,15.46
2022-09-13T18:42:04.296Z,15.45
2022-09-13T18:44:33.767Z,15.42
2022-09-13T18:47:03.960Z,15.42
2022-09-13T18:49:31.774Z,15.43
2022-09-13T18:51:59.065Z,15.44
2022-09-13T18:54:26.365Z,15.47
2022-09-13T18:56:54.410Z,15.48
2022-09-13T18:59:21.973Z,15.47
2022-09-13T19:01:49.950Z,15.46
2022-09-13T19:04:19.711Z,15.47
2022-09-13T19:06:52.402Z,15.47
2022-09-13T19:09:23.546Z,15.47
2022-09-13T19:11:54.781Z,15.46
2022-09-13T19:14:27.266Z,15.44
2022-09-13T19:16:57.809Z,15.45
2022-09-13T19:19:25.255Z,15.41
2022-09-13T19:21:56.872Z,15.37
2022-09-13T19:24:24.864Z,15.36
2022-09-13T19:26:52.874Z,15.33
2022-09-13T19:29:22.178Z,15.33
2022-09-13T19:31:52.629Z,15.30
2022-09-13T19:34:40.314Z,15.32
2022-09-13T19:37:10.107Z,15.33
2022-09-13T19:39:37.888Z,15.34
2022-09-13T19:42:05.468Z,15.36
2022-09-13T19:44:47.709Z,15.39
2022-09-13T19:48:02.296Z,15.40
2022-09-13T19:50:05.379Z,15.42
2022-09-13T19:52:32.908Z,15.44
2022-09-13T19:55:00.455Z,15.42
2022-09-13T19:57:30.772Z,15.41
2022-09-13T19:59:58.450Z,15.40
2022-09-13T20:02:25.680Z,15.43
2022-09-13T20:04:53.039Z,15.43
2022-09-13T20:07:20.581Z,15.44
2022-09-13T20:09:48.341Z,15.50
2022-09-13T20:12:15.729Z,15.51
2022-09-13T20:14:48.021Z,15.48
2022-09-13T20:17:15.380Z,15.44
2022-09-13T20:19:49.966Z,15.39
2022-09-13T20:22:46.002Z,15.32
2022-09-13T20:25:13.728Z,15.27
2022-09-13T20:27:41.018Z,15.21
2022-09-13T20:30:08.658Z,15.13
2022-09-13T20:32:36.494Z,15.09
2022-09-13T20:35:04.253Z,15.00
2022-09-13T20:37:31.646Z,15.00
2022-09-13T20:40:03.112Z,15.00
2022-09-13T20:42:30.656Z,14.98
2022-09-13T20:44:58.020Z,14.95
2022-09-13T20:47:25.680Z,14.92
2022-09-13T20:49:54.210Z,14.94
2022-09-13T20:52:22.616Z,14.93
2022-09-13T20:54:50.851Z,14.90
2022-09-13T20:57:18.273Z,14.87
2022-09-13T20:59:46.408Z,14.82
2022-09-13T21:02:14.653Z,14.81
2022-09-13T21:04:42.455Z,14.73
2022-09-13T21:07:31.949Z,14.69
2022-09-13T21:10:01.087Z,14.66
2022-09-13T21:12:28.598Z,14.64
2022-09-13T21:14:56.157Z,14.59
2022-09-13T21:17:27.721Z,14.54
2022-09-13T21:19:55.473Z,14.43
2022-09-13T21:22:24.982Z,14.36
2022-09-13T21:24:52.276Z,14.31
2022-09-13T21:27:20.092Z,14.24
2022-09-13T21:29:51.838Z,14.18
2022-09-13T21:32:22.751Z,14.11
2022-09-13T21:34:50.300Z,14.09
2022-09-13T21:37:17.848Z,14.05
2022-09-13T21:39:45.278Z,14.04
2022-09-13T21:42:12.503Z,14.02
2022-09-13T21:44:39.797Z,14.01
2022-09-13T21:47:07.147Z,13.95
2022-09-13T21:49:34.394Z,13.98
2022-09-13T21:52:02.889Z,14.02
2022-09-13T21:54:30.334Z,14.00
2022-09-13T21:56:58.197Z,14.02
2022-09-13T21:59:25.896Z,13.97
2022-09-13T22:01:54.459Z,13.96
2022-09-13T22:04:25.437Z,13.89
2022-09-13T22:06:53.928Z,13.86
2022-09-13T22:09:27.062Z,13.85
2022-09-13T22:11:55.891Z,13.82
2022-09-13T22:14:23.401Z,13.79
2022-09-13T22:16:52.850Z,13.81
2022-09-13T22:19:23.772Z,13.81
2022-09-13T22:21:55.769Z,13.82
2022-09-13T22:24:25.483Z,13.82
2022-09-13T22:26:54.174Z,13.86
2022-09-13T22:29:22.707Z,13.85
2022-09-13T22:31:51.325Z,13.88
2022-09-13T22:34:22.299Z,13.82
2022-09-13T22:36:49.591Z,13.89
2022-09-13T22:39:17.646Z,13.91
2022-09-13T22:41:45.638Z,13.95
2022-09-13T22:44:13.579Z,13.96
2022-09-13T22:46:46.644Z,13.97
2022-09-13T22:49:19.874Z,13.96
2022-09-13T22:51:50.721Z,13.99
2022-09-13T22:54:19.604Z,13.95
2022-09-13T22:56:47.447Z,13.97
2022-09-13T22:59:20.316Z,13.97
2022-09-13T23:01:48.080Z,13.96
2022-09-13T23:04:15.745Z,14.01
2022-09-13T23:06:44.716Z,14.05
2022-09-13T23:09:15.079Z,14.07
2022-09-13T23:11:42.702Z,14.06
2022-09-13T23:14:12.923Z,14.08
2022-09-13T23:16:45.481Z,14.07
2022-09-13T23:19:16.542Z,14.09
2022-09-13T23:21:44.206Z,14.09
2022-09-13T23:24:15.512Z,14.10
2022-09-13T23:26:43.816Z,14.09
2022-09-13T23:29:14.155Z,14.10
2022-09-13T23:31:41.573Z,14.04
2022-09-13T23:34:10.929Z,14.10
2022-09-13T23:36:41.324Z,14.09
2022-09-13T23:39:13.263Z,14.09
2022-09-13T23:41:41.027Z,14.07
2022-09-13T23:44:11.651Z,14.07
2022-09-13T23:46:39.066Z,14.07
2022-09-13T23:49:06.472Z,14.06
2022-09-13T23:51:33.776Z,14.05
2022-09-13T23:54:01.931Z,14.04
2022-09-13T23:56:31.521Z,14.05
2022-09-13T23:59:00.338Z,14.04
